Time;durP1;ratioP1;P1;durP2;ratioP2;P2;SDS_P1;SDS_P2;PMS_P1;PMS_P2;Temp;Humidity;BMP_temperature;BMP_pressure;BME280_temperature;BME280_humidity;BME280_pressure;Samples;Min_cycle;Max_cycle;Signal;HPM_P1;HPM_P2
2023/03/06 00:01:31;;;;;;;59.00;29.50;;;;;;;-4.20;79.76;99056.02;103368;1253;97797;-67
2023/03/06 00:03:59;;;;;;;56.00;30.20;;;;;;;-4.21;79.88;99048.71;102495;1256;1003027;-67
2023/03/06 00:06:28;;;;;;;56.20;30.30;;;;;;;-4.23;79.82;99052.27;103366;1253;107010;-67
2023/03/06 00:09:16;;;;;;;58.50;29.10;;;;;;;-4.26;79.54;99052.42;103323;1253;98868;-67
2023/03/06 00:12:04;;;;;;;57.20;30.70;;;;;;;-4.28;80.18;99052.75;103211;1253;138432;-67
2023/03/06 00:14:44;;;;;;;59.80;30.00;;;;;;;-4.31;79.91;99051.02;103119;1253;1002536;-67
2023/03/06 00:17:15;;;;;;;61.50;30.40;;;;;;;-4.30;80.24;99053.91;104212;1254;140497;-67
2023/03/06 00:19:45;;;;;;;57.70;30.30;;;;;;;-4.32;79.97;99051.35;101858;1256;1003639;-67
2023/03/06 00:22:32;;;;;;;57.00;29.80;;;;;;;-4.32;80.49;99053.19;103242;1256;139759;-67
2023/03/06 00:25:22;;;;;;;53.70;29.30;;;;;;;-4.33;80.14;99052.17;103409;1253;108738;-66
2023/03/06 00:28:00;;;;;;;55.90;28.20;;;;;;;-4.37;80.18;99054.36;103746;1256;139090;-67
2023/03/06 00:30:31;;;;;;;53.50;27.90;;;;;;;-4.38;80.33;99049.25;103398;1253;112168;-67
2023/03/06 00:32:58;;;;;;;55.10;29.10;;;;;;;-4.40;80.36;99054.17;102738;1253;1003353;-67
2023/03/06 00:35:26;;;;;;;52.90;28.60;;;;;;;-4.41;80.79;99053.14;104317;1254;138975;-67
2023/03/06 00:38:14;;;;;;;52.10;27.30;;;;;;;-4.42;80.44;99051.94;103452;1253;106910;-67
2023/03/06 00:40:44;;;;;;;53.00;28.50;;;;;;;-4.45;80.95;99055.65;104097;1257;139291;-67
2023/03/06 00:43:32;;;;;;;55.00;29.90;;;;;;;-4.47;80.71;99055.64;102981;1253;1003215;-67
2023/03/06 00:46:09;;;;;;;57.80;29.20;;;;;;;-4.46;80.81;99054.80;103519;1256;139989;-67
2023/03/06 00:48:38;;;;;;;62.10;29.20;;;;;;;-4.47;80.83;99051.91;104083;1258;97679;-67
2023/03/06 00:51:20;;;;;;;55.70;28.20;;;;;;;-4.48;80.74;99051.38;104098;1253;107692;-67
2023/03/06 00:53:50;;;;;;;51.30;28.00;;;;;;;-4.49;80.83;99055.77;103439;1253;139035;-67
2023/03/06 00:56:18;;;;;;;52.40;28.50;;;;;;;-4.49;80.87;99055.09;103380;1256;111731;-67
2023/03/06 00:58:53;;;;;;;52.50;27.30;;;;;;;-4.50;80.79;99053.05;103357;1253;1003002;-67
2023/03/06 01:01:24;;;;;;;51.20;27.90;;;;;;;-4.50;80.86;99048.63;104751;1253;96126;-67
2023/03/06 01:03:51;;;;;;;51.50;28.10;;;;;;;-4.51;80.79;99050.83;103447;1256;138744;-66
2023/03/06 01:06:30;;;;;;;55.80;27.20;;;;;;;-4.51;80.77;99048.12;102633;1253;1003022;-67
2023/03/06 01:09:08;;;;;;;56.70;28.80;;;;;;;-4.52;80.68;99048.27;102806;1257;1003585;-67
2023/03/06 01:11:58;;;;;;;55.00;29.30;;;;;;;-4.51;80.95;99046.24;102448;1253;1003682;-66
2023/03/06 01:14:30;;;;;;;55.50;28.30;;;;;;;-4.50;81.04;99043.88;103584;1256;97789;-66
2023/03/06 01:17:10;;;;;;;47.40;26.60;;;;;;;-4.49;81.14;99042.21;103228;1253;138655;-66
2023/03/06 01:19:37;;;;;;;50.20;27.90;;;;;;;-4.47;81.12;99038.34;104068;1253;96097;-67
2023/03/06 01:22:09;;;;;;;50.00;25.90;;;;;;;-4.44;81.44;99041.75;103414;1253;138724;-66
2023/03/06 01:24:37;;;;;;;49.10;25.50;;;;;;;-4.43;80.99;99041.59;103386;1253;107525;-66
2023/03/06 01:27:09;;;;;;;51.70;26.50;;;;;;;-4.40;80.96;99040.93;103311;1257;97879;-66
2023/03/06 01:29:37;;;;;;;50.50;26.50;;;;;;;-4.39;81.52;99042.45;103203;1253;138676;-66
2023/03/06 01:32:08;;;;;;;52.40;25.90;;;;;;;-4.40;81.21;99041.77;102587;1255;1002945;-66
2023/03/06 01:34:56;;;;;;;48.50;26.30;;;;;;;-4.40;81.37;99036.68;103850;1254;1002909;-67
2023/03/06 01:37:23;;;;;;;48.10;26.70;;;;;;;-4.41;81.29;99039.39;102766;1253;1003167;-66
2023/03/06 01:39:57;;;;;;;52.00;25.90;;;;;;;-4.41;81.49;99036.17;103886;1256;139260;-67
2023/03/06 01:42:44;;;;;;;56.10;26.80;;;;;;;-4.39;81.26;99034.65;103341;1253;110197;-67
2023/03/06 01:45:50;;;;;;;53.50;26.20;;;;;;;-4.40;81.16;99028.20;103927;1253;1003003;-67
2023/03/06 01:48:30;;;;;;;52.30;26.00;;;;;;;-4.41;81.08;99024.64;103632;1258;112302;-67
2023/03/06 01:51:18;;;;;;;52.10;27.70;;;;;;;-4.42;81.25;99026.16;103362;1255;108193;-66
2023/03/06 01:53:55;;;;;;;50.60;25.50;;;;;;;-4.41;81.59;99025.65;103100;1259;138904;-67
2023/03/06 01:56:23;;;;;;;53.30;26.20;;;;;;;-4.41;81.47;99023.27;103395;1256;107194;-67
2023/03/06 01:59:02;;;;;;;54.30;27.40;;;;;;;-4.39;81.64;99022.45;102515;1256;1003085;-66
2023/03/06 02:01:35;;;;;;;50.80;26.00;;;;;;;-4.38;81.78;99024.30;103376;1256;112014;-66
2023/03/06 02:04:03;;;;;;;47.70;25.00;;;;;;;-4.41;81.40;99021.41;103364;1258;140145;-66
2023/03/06 02:06:32;;;;;;;53.50;27.10;;;;;;;-4.43;81.40;99023.10;103237;1256;98323;-67
2023/03/06 02:09:03;;;;;;;52.50;26.70;;;;;;;-4.43;81.34;99022.41;102523;1257;1002833;-66
2023/03/06 02:11:42;;;;;;;54.00;26.70;;;;;;;-4.42;81.50;99024.29;103121;1256;138948;-67
2023/03/06 02:14:31;;;;;;;50.20;24.50;;;;;;;-4.43;81.64;99023.61;103801;1256;1002731;-67
2023/03/06 02:17:01;;;;;;;50.70;26.10;;;;;;;-4.43;81.12;99023.44;102460;1256;1003447;-67
2023/03/06 02:19:48;;;;;;;49.70;25.10;;;;;;;-4.44;81.42;99022.75;103237;1259;98309;-67
2023/03/06 02:22:44;;;;;;;53.10;25.20;;;;;;;-4.42;81.64;99020.73;103113;1255;139645;-67
2023/03/06 02:25:23;;;;;;;51.70;26.70;;;;;;;-4.43;81.53;99023.95;102517;1256;1003315;-67
2023/03/06 02:27:51;;;;;;;50.90;25.20;;;;;;;-4.44;81.74;99022.06;103339;1256;110959;-67
2023/03/06 02:30:33;;;;;;;48.20;25.10;;;;;;;-4.43;81.53;99024.11;103298;1258;106770;-68
2023/03/06 02:33:00;;;;;;;48.50;24.90;;;;;;;-4.42;81.46;99022.08;103215;1256;97770;-68
2023/03/06 02:35:52;;;;;;;47.90;25.40;;;;;;;-4.43;81.87;99020.21;103102;1256;139153;-68
2023/03/06 02:38:23;;;;;;;50.20;25.90;;;;;;;-4.44;81.42;99020.72;102649;1254;1002994;-68
2023/03/06 02:40:56;;;;;;;50.20;25.40;;;;;;;-4.44;81.52;99020.54;102283;1260;1003647;-68
2023/03/06 02:43:36;;;;;;;46.80;24.80;;;;;;;-4.44;81.63;99020.04;103241;1258;108708;-68
2023/03/06 02:46:22;;;;;;;49.80;25.20;;;;;;;-4.44;81.50;99018.00;103143;1255;138972;-68
2023/03/06 02:49:10;;;;;;;53.70;25.40;;;;;;;-4.46;81.81;99017.30;103248;1258;108748;-68
2023/03/06 02:51:59;;;;;;;44.40;23.60;;;;;;;-4.49;81.77;99019.46;103458;1256;138957;-68
2023/03/06 02:54:30;;;;;;;51.30;25.70;;;;;;;-4.51;81.59;99021.82;103209;1259;110748;-67
2023/03/06 02:57:08;;;;;;;45.60;25.10;;;;;;;-4.51;81.60;99019.79;104573;1256;108610;-68
2023/03/06 02:59:36;;;;;;;47.50;25.90;;;;;;;-4.53;81.91;99019.27;103099;1256;138705;-67
2023/03/06 03:02:06;;;;;;;51.10;25.80;;;;;;;-4.54;81.71;99017.90;103181;1255;107406;-67
2023/03/06 03:04:37;;;;;;;49.60;26.60;;;;;;;-4.57;81.58;99016.35;103707;1254;138699;-67
2023/03/06 03:07:08;;;;;;;51.90;26.20;;;;;;;-4.60;81.82;99015.14;104276;1258;112637;-67
2023/03/06 03:09:36;;;;;;;49.40;25.90;;;;;;;-4.61;81.88;99014.12;102534;1254;1003342;-67
2023/03/06 03:12:08;;;;;;;46.50;24.70;;;;;;;-4.61;81.94;99014.46;102932;1253;1003253;-68
2023/03/06 03:14:38;;;;;;;46.20;24.50;;;;;;;-4.61;81.73;99012.60;104239;1253;107529;-67
2023/03/06 03:17:26;;;;;;;53.30;26.20;;;;;;;-4.59;81.58;99018.54;104070;1254;138931;-68
2023/03/06 03:19:53;;;;;;;47.20;25.60;;;;;;;-4.60;81.83;99017.35;102978;1257;1002289;-68
2023/03/06 03:22:32;;;;;;;48.90;27.60;;;;;;;-4.59;81.93;99018.88;101957;1256;1003034;-68
2023/03/06 03:25:00;;;;;;;49.00;25.10;;;;;;;-4.57;81.89;99015.51;99949;1257;5372316;-68
2023/03/06 03:27:40;;;;;;;46.70;25.80;;;;;;;-4.58;81.78;99014.83;103325;1258;108597;-67
2023/03/06 03:30:18;;;;;;;48.40;25.00;;;;;;;-4.58;81.83;99014.99;101859;1253;1015789;-67
2023/03/06 03:32:46;;;;;;;51.70;25.30;;;;;;;-4.59;81.93;99014.30;103918;1256;110344;-68
2023/03/06 03:35:34;;;;;;;51.50;26.90;;;;;;;-4.60;81.74;99013.11;103231;1253;139513;-68
2023/03/06 03:38:21;;;;;;;45.00;25.20;;;;;;;-4.62;81.93;99009.02;102896;1255;1002921;-68
2023/03/06 03:40:54;;;;;;;53.70;26.00;;;;;;;-4.64;81.71;99005.79;103171;1254;138933;-68
2023/03/06 03:43:42;;;;;;;52.90;27.70;;;;;;;-4.66;81.87;99010.19;102618;1256;1003468;-67
2023/03/06 03:46:30;;;;;;;47.10;25.20;;;;;;;-4.67;81.91;99010.83;102516;1259;1002966;-67
2023/03/06 03:48:59;;;;;;;50.10;25.90;;;;;;;-4.66;82.11;99009.49;101834;1254;1003430;-67
2023/03/06 03:51:47;;;;;;;53.10;26.10;;;;;;;-4.66;81.93;99008.15;103792;1254;112566;-68
2023/03/06 03:54:27;;;;;;;48.80;24.70;;;;;;;-4.65;81.84;99004.77;104207;1254;106948;-68
2023/03/06 03:57:15;;;;;;;44.70;23.70;;;;;;;-4.64;82.21;99002.73;103416;1253;98579;-67
2023/03/06 04:00:04;;;;;;;49.30;25.00;;;;;;;-4.65;82.04;99000.70;103359;1258;138517;-67
2023/03/06 04:03:00;;;;;;;47.60;24.70;;;;;;;-4.66;81.87;99000.34;102743;1254;1005678;-67
2023/03/06 04:05:47;;;;;;;41.60;23.50;;;;;;;-4.67;82.00;98999.64;104105;1255;140034;-67
2023/03/06 04:08:35;;;;;;;49.90;24.10;;;;;;;-4.68;81.86;98998.45;104588;1256;106214;-66
2023/03/06 04:11:06;;;;;;;43.60;23.40;;;;;;;-4.66;81.86;98994.75;104465;1253;139392;-66
2023/03/06 04:13:54;;;;;;;47.90;23.70;;;;;;;-4.66;82.08;98996.61;104617;1257;108216;-66
2023/03/06 04:16:41;;;;;;;43.40;23.90;;;;;;;-4.65;81.85;98995.77;104470;1255;138768;-67
2023/03/06 04:19:29;;;;;;;46.30;23.10;;;;;;;-4.63;81.84;98997.99;104678;1254;112056;-66
2023/03/06 04:22:01;;;;;;;47.00;23.70;;;;;;;-4.62;81.78;98996.48;104516;1254;107819;-66
2023/03/06 04:24:48;;;;;;;44.10;24.10;;;;;;;-4.62;81.71;98991.39;104141;1254;95914;-67
2023/03/06 04:27:26;;;;;;;47.80;24.90;;;;;;;-4.60;82.01;98991.06;103705;1256;108222;-69
2023/03/06 04:29:58;;;;;;;45.30;23.50;;;;;;;-4.59;81.55;98993.44;103000;1256;1003005;-67
2023/03/06 04:32:39;;;;;;;44.80;24.30;;;;;;;-4.59;81.87;98988.69;104106;1258;110847;-67
2023/03/06 04:35:27;;;;;;;46.50;24.30;;;;;;;-4.61;81.57;98988.84;103166;1258;138736;-67
2023/03/06 04:38:14;;;;;;;46.00;23.20;;;;;;;-4.61;81.91;98987.48;102619;1255;1002823;-67
2023/03/06 04:40:51;;;;;;;51.70;26.10;;;;;;;-4.62;81.69;98985.80;103322;1257;139931;-67
2023/03/06 04:43:39;;;;;;;48.50;25.70;;;;;;;-4.61;81.86;98988.00;103513;1254;97785;-67
2023/03/06 04:46:18;;;;;;;50.00;25.00;;;;;;;-4.61;81.69;98982.06;103809;1254;138751;-67
2023/03/06 04:49:05;;;;;;;50.80;25.10;;;;;;;-4.61;81.54;98980.88;103898;1257;107562;-68
2023/03/06 04:51:35;;;;;;;46.80;26.30;;;;;;;-4.64;81.76;98980.86;103473;1257;99459;-68
2023/03/06 04:54:06;;;;;;;52.70;25.50;;;;;;;-4.64;81.44;98979.67;103170;1254;138508;-68
2023/03/06 04:56:41;;;;;;;47.70;25.10;;;;;;;-4.66;81.56;98976.95;103554;1254;97915;-68
2023/03/06 04:59:09;;;;;;;52.60;25.80;;;;;;;-4.68;81.99;98975.72;104415;1253;138412;-68
2023/03/06 05:01:39;;;;;;;51.10;25.90;;;;;;;-4.68;81.79;98976.22;103544;1254;106676;-68
2023/03/06 05:04:07;;;;;;;48.70;26.10;;;;;;;-4.69;81.82;98978.42;103147;1264;139006;-68
2023/03/06 05:06:55;;;;;;;51.10;26.80;;;;;;;-4.71;81.74;98980.60;103197;1259;107980;-68
2023/03/06 05:09:22;;;;;;;51.50;26.90;;;;;;;-4.71;81.65;98975.36;103251;1260;97804;-68
2023/03/06 05:11:53;;;;;;;50.70;26.40;;;;;;;-4.71;81.58;98974.34;103113;1254;138597;-68
2023/03/06 05:14:23;;;;;;;55.20;27.50;;;;;;;-4.72;81.60;98976.02;103217;1254;109215;-68
2023/03/06 05:17:02;;;;;;;50.90;27.20;;;;;;;-4.73;81.81;98977.04;103097;1259;138833;-68
2023/03/06 05:19:49;;;;;;;48.60;26.80;;;;;;;-4.75;81.93;98979.23;102763;1254;1003723;-68
2023/03/06 05:22:20;;;;;;;52.30;27.20;;;;;;;-4.76;81.75;98980.23;103670;1256;139007;-66
2023/03/06 05:24:56;;;;;;;54.70;27.40;;;;;;;-4.78;81.76;98978.02;103441;1254;111255;-68
2023/03/06 05:27:23;;;;;;;54.00;27.40;;;;;;;-4.78;81.59;98976.15;102356;1260;1003713;-68
2023/03/06 05:30:01;;;;;;;55.40;28.80;;;;;;;-4.73;81.79;98974.33;102357;1260;1003075;-68
2023/03/06 05:32:28;;;;;;;53.10;27.20;;;;;;;-4.65;82.03;98976.27;103370;1258;108527;-68
2023/03/06 05:34:56;;;;;;;55.20;27.50;;;;;;;-4.54;81.96;98972.10;102220;1259;1003662;-68
2023/03/06 05:37:33;;;;;;;52.60;27.30;;;;;;;-4.42;82.23;98973.73;103288;1260;112270;-67
2023/03/06 05:40:22;;;;;;;47.30;26.50;;;;;;;-4.28;82.02;98973.66;104240;1258;138843;-66
2023/03/06 05:42:54;;;;;;;52.40;27.40;;;;;;;-4.14;81.23;98974.92;103954;1254;97671;-66
2023/03/06 05:45:34;;;;;;;53.40;26.50;;;;;;;-3.99;80.99;98972.81;103854;1260;108111;-66
2023/03/06 05:48:13;;;;;;;54.80;27.90;;;;;;;-3.83;81.07;98973.91;103176;1254;138791;-66
2023/03/06 05:50:58;;;;;;;50.10;27.40;;;;;;;-3.64;80.95;98978.25;103392;1260;111635;-67
2023/03/06 05:53:26;;;;;;;46.70;25.70;;;;;;;-3.40;80.93;98981.92;102813;1254;1003073;-66
2023/03/06 05:56:00;;;;;;;52.60;26.00;;;;;;;-3.23;79.96;98981.80;102608;1258;1003479;-67
2023/03/06 05:58:31;;;;;;;53.10;27.00;;;;;;;-3.05;79.73;98983.20;103248;1260;139159;-67
2023/03/06 06:01:13;;;;;;;47.40;25.60;;;;;;;-2.83;79.40;98982.56;104569;1254;95915;-67
2023/03/06 06:03:40;;;;;;;46.50;25.60;;;;;;;-2.60;79.12;98984.11;104032;1259;111766;-67
2023/03/06 06:06:16;;;;;;;42.80;24.30;;;;;;;-2.34;78.53;98986.15;103897;1254;139167;-67
2023/03/06 06:09:04;;;;;;;39.70;24.30;;;;;;;-2.01;78.09;98986.45;103832;1257;98261;-66
2023/03/06 06:11:31;;;;;;;44.40;23.10;;;;;;;-1.66;77.54;98987.21;103492;1254;138380;-66
2023/03/06 06:13:58;;;;;;;37.40;22.70;;;;;;;-1.34;76.44;98976.86;103374;1254;97794;-64
2023/03/06 06:16:26;;;;;;;38.00;22.30;;;;;;;-1.01;76.04;98977.86;103400;1254;138663;-64
2023/03/06 06:18:56;;;;;;;38.30;21.50;;;;;;;-0.49;75.02;98977.51;103131;1258;1014863;-65
2023/03/06 06:21:24;;;;;;;35.00;20.40;;;;;;;0.13;74.02;98976.59;102546;1259;1003164;-63
2023/03/06 06:23:51;;;;;;;36.00;20.90;;;;;;;0.96;73.07;98976.77;103018;1254;138533;-66
2023/03/06 06:26:19;;;;;;;30.80;19.80;;;;;;;1.78;70.88;98978.08;103785;1256;97783;-66
2023/03/06 06:28:46;;;;;;;34.80;20.50;;;;;;;2.78;69.47;98970.16;104301;1257;138117;-67
2023/03/06 06:31:13;;;;;;;31.60;19.20;;;;;;;3.74;67.09;98969.83;104407;1257;108198;-67
2023/03/06 06:33:41;;;;;;;31.80;19.70;;;;;;;4.71;65.48;98964.30;104497;1254;96100;-67
2023/03/06 06:36:17;;;;;;;32.80;20.00;;;;;;;5.72;63.99;98962.36;103263;1255;138046;-67
2023/03/06 06:38:44;;;;;;;33.20;20.10;;;;;;;6.95;62.34;98959.21;103967;1254;97788;-69
2023/03/06 06:41:12;;;;;;;29.50;19.70;;;;;;;8.01;60.15;98952.05;103193;1254;137560;-67
2023/03/06 06:44:00;;;;;;;28.50;18.90;;;;;;;9.14;58.58;98950.48;102335;1257;1003839;-68
2023/03/06 06:46:28;;;;;;;36.00;18.80;;;;;;;10.03;56.28;98948.75;102967;1260;139122;-69
2023/03/06 06:49:16;;;;;;;28.00;18.10;;;;;;;10.38;54.27;98942.08;103131;1268;109444;-69
2023/03/06 06:51:43;;;;;;;29.70;18.30;;;;;;;10.90;53.09;98943.86;103036;1260;97852;-68
2023/03/06 06:54:12;;;;;;;28.60;18.80;;;;;;;11.31;52.02;98938.26;104268;1255;137614;-69
2023/03/06 06:56:39;;;;;;;28.10;18.80;;;;;;;11.95;51.73;98938.45;104190;1254;106685;-69
2023/03/06 06:59:06;;;;;;;28.40;18.90;;;;;;;12.56;50.63;98930.09;104435;1257;137924;-69
2023/03/06 07:01:43;;;;;;;26.90;17.60;;;;;;;13.00;48.43;98927.74;104540;1254;107629;-69
2023/03/06 07:04:12;;;;;;;25.80;18.70;;;;;;;13.05;46.32;98927.95;103248;1257;138425;-68
2023/03/06 07:06:39;;;;;;;27.30;18.70;;;;;;;13.20;46.29;98924.52;103017;1254;1002783;-69
2023/03/06 07:09:06;;;;;;;26.10;17.60;;;;;;;13.70;46.83;98922.66;104478;1257;107774;-69
2023/03/06 07:11:34;;;;;;;26.10;18.50;;;;;;;14.54;46.76;98913.51;104397;1254;137932;-69
2023/03/06 07:14:01;;;;;;;26.90;17.70;;;;;;;15.37;46.07;98910.03;104447;1254;108248;-70
2023/03/06 07:16:28;;;;;;;27.90;18.80;;;;;;;16.43;45.40;98909.98;103743;1257;1002519;-70
2023/03/06 07:18:55;;;;;;;26.20;19.20;;;;;;;17.00;43.30;98906.70;104547;1254;111364;-70
2023/03/06 07:21:23;;;;;;;27.00;19.60;;;;;;;16.28;43.45;98908.64;104220;1259;137945;-70
2023/03/06 07:23:50;;;;;;;28.70;19.70;;;;;;;15.13;43.00;98909.16;104398;1258;96048;-69
2023/03/06 07:26:17;;;;;;;24.60;18.30;;;;;;;13.79;42.74;98914.75;104027;1259;108493;-68
2023/03/06 07:28:48;;;;;;;26.20;18.50;;;;;;;12.52;43.12;98916.35;103839;1257;138541;-69
2023/03/06 07:31:20;;;;;;;25.40;18.60;;;;;;;11.12;43.00;98920.70;103810;1257;112388;-66
2023/03/06 07:33:47;;;;;;;27.40;18.10;;;;;;;10.24;43.28;98923.91;103025;1261;138101;-66
2023/03/06 07:36:14;;;;;;;26.00;17.80;;;;;;;9.92;44.53;98921.69;102969;1260;98253;-65
2023/03/06 07:38:42;;;;;;;30.60;19.70;;;;;;;10.06;44.94;98929.30;103895;1257;138123;-66
2023/03/06 07:41:12;;;;;;;31.10;20.40;;;;;;;10.64;44.62;98924.95;104189;1260;97596;-66
2023/03/06 07:43:40;;;;;;;32.30;20.10;;;;;;;11.66;46.08;98927.73;103024;1257;111673;-67
2023/03/06 07:46:07;;;;;;;36.40;19.50;;;;;;;13.02;45.43;98932.67;103480;1258;138013;-68
2023/03/06 07:48:34;;;;;;;31.20;20.20;;;;;;;14.04;44.15;98929.29;103555;1258;98190;-68
2023/03/06 07:51:04;;;;;;;31.20;20.40;;;;;;;14.52;43.15;98925.86;102798;1257;138561;-68
2023/03/06 07:53:32;;;;;;;30.40;19.20;;;;;;;14.75;41.72;98925.73;104271;1258;96374;-68
2023/03/06 07:56:00;;;;;;;30.80;19.30;;;;;;;14.51;40.40;98924.55;104421;1257;111259;-68
2023/03/06 07:58:27;;;;;;;26.00;18.00;;;;;;;14.29;40.38;98923.95;104247;1257;138720;-67
2023/03/06 08:00:54;;;;;;;26.80;17.90;;;;;;;14.00;40.11;98927.86;104380;1257;96013;-68
2023/03/06 08:03:22;;;;;;;29.60;17.50;;;;;;;13.78;40.31;98929.27;104299;1257;138501;-66
2023/03/06 08:05:49;;;;;;;24.50;15.50;;;;;;;13.01;38.92;98927.48;104465;1256;96663;-66
2023/03/06 08:08:17;;;;;;;23.10;14.70;;;;;;;11.89;38.82;98929.54;104301;1257;111065;-67
2023/03/06 08:10:48;;;;;;;23.40;16.00;;;;;;;10.62;40.30;98929.39;104413;1257;137905;-69
2023/03/06 08:13:16;;;;;;;26.30;14.80;;;;;;;10.19;41.92;98929.65;104257;1257;97793;-66
2023/03/06 08:15:49;;;;;;;22.80;14.60;;;;;;;10.02;42.01;98939.25;103376;1258;137855;-66
2023/03/06 08:18:16;;;;;;;22.90;14.70;;;;;;;9.32;42.17;98935.59;103545;1256;97814;-66
2023/03/06 08:20:44;;;;;;;23.00;14.30;;;;;;;8.50;43.19;98933.48;103126;1257;138025;-66
2023/03/06 08:23:11;;;;;;;21.50;14.10;;;;;;;8.19;44.37;98934.83;103338;1257;108390;-66
2023/03/06 08:25:38;;;;;;;21.90;13.70;;;;;;;7.95;44.88;98936.20;102479;1260;1003568;-67
2023/03/06 08:28:05;;;;;;;20.90;12.20;;;;;;;7.55;44.78;98937.16;103075;1257;137980;-67
2023/03/06 08:30:38;;;;;;;17.50;10.60;;;;;;;6.68;44.71;98937.81;102510;1260;1003014;-67
2023/03/06 08:33:06;;;;;;;20.20;11.20;;;;;;;5.87;46.04;98947.07;103074;1257;137997;-68
2023/03/06 08:35:33;;;;;;;21.70;12.70;;;;;;;5.41;47.42;98946.84;103082;1256;108486;-66
2023/03/06 08:38:00;;;;;;;19.50;12.00;;;;;;;5.17;48.40;98951.42;103232;1260;97768;-66
2023/03/06 08:40:31;;;;;;;20.90;12.00;;;;;;;4.87;48.89;98945.09;103678;1255;137916;-67
2023/03/06 08:42:58;;;;;;;22.30;12.80;;;;;;;4.68;49.45;98944.77;103220;1257;1003092;-68
2023/03/06 08:45:25;;;;;;;24.10;12.50;;;;;;;4.68;50.12;98942.89;103095;1259;138339;-67
2023/03/06 08:47:55;;;;;;;19.40;12.30;;;;;;;4.67;50.07;98942.20;102255;1256;1003436;-66
2023/03/06 08:50:22;;;;;;;17.90;10.60;;;;;;;4.58;50.25;98942.30;103182;1258;97809;-67
2023/03/06 08:52:53;;;;;;;22.60;11.50;;;;;;;4.50;50.51;98940.30;103260;1257;108850;-67
2023/03/06 08:55:20;;;;;;;21.70;11.90;;;;;;;4.37;50.70;98934.64;103233;1257;98156;-66
2023/03/06 08:57:48;;;;;;;18.10;11.00;;;;;;;4.33;51.02;98932.02;102730;1256;1002551;-67
2023/03/06 09:00:19;;;;;;;20.70;11.10;;;;;;;4.27;51.37;98932.34;103242;1260;108809;-67
2023/03/06 09:02:47;;;;;;;19.00;11.70;;;;;;;4.21;51.48;98926.30;103528;1255;138087;-67
2023/03/06 09:05:14;;;;;;;21.70;11.20;;;;;;;4.22;51.89;98926.27;102431;1256;1003776;-67
2023/03/06 09:07:52;;;;;;;20.50;12.10;;;;;;;4.41;51.99;98929.03;103249;1257;97845;-67
2023/03/06 09:10:22;;;;;;;16.60;11.60;;;;;;;4.52;52.29;98923.38;103026;1256;137756;-67
2023/03/06 09:12:53;;;;;;;26.40;13.50;;;;;;;4.71;52.30;98929.70;103672;1257;1002675;-67
2023/03/06 09:15:24;;;;;;;18.60;10.40;;;;;;;4.75;51.98;98928.20;103092;1257;137807;-67
2023/03/06 09:17:52;;;;;;;20.50;12.10;;;;;;;4.56;52.14;98925.85;103607;1255;108042;-68
2023/03/06 09:20:23;;;;;;;24.10;12.30;;;;;;;4.46;52.25;98928.55;103371;1259;97794;-68
2023/03/06 09:22:50;;;;;;;20.40;11.70;;;;;;;4.37;52.47;98935.52;103698;1256;137356;-66
2023/03/06 09:25:19;;;;;;;24.80;12.20;;;;;;;4.29;52.87;98936.41;103586;1255;109163;-68
2023/03/06 09:27:46;;;;;;;19.80;11.60;;;;;;;4.07;52.97;98941.14;104182;1254;137737;-67
2023/03/06 09:30:28;;;;;;;20.20;12.60;;;;;;;3.79;53.59;98931.23;103857;1256;108209;-69
2023/03/06 09:32:56;;;;;;;20.90;12.10;;;;;;;3.59;53.99;98934.98;103164;1257;137779;-68
2023/03/06 09:35:23;;;;;;;21.30;11.50;;;;;;;3.39;54.35;98933.77;103143;1260;112111;-69
2023/03/06 09:37:54;;;;;;;19.20;11.60;;;;;;;3.18;54.54;98928.75;103203;1259;107492;-70
2023/03/06 09:40:33;;;;;;;22.30;11.00;;;;;;;3.06;55.23;98928.54;103393;1259;138002;-73
2023/03/06 09:43:03;;;;;;;17.50;9.40;;;;;;;2.94;54.87;98932.92;102509;1258;1003818;-70
2023/03/06 09:45:36;;;;;;;20.30;8.90;;;;;;;2.77;55.13;98924.89;103643;1255;138057;-70
2023/03/06 09:48:10;;;;;;;17.40;9.00;;;;;;;2.76;55.44;98924.55;103388;1256;112262;-71
2023/03/06 09:50:44;;;;;;;18.00;8.50;;;;;;;2.75;55.89;98925.77;102993;1259;138072;-70
2023/03/06 09:53:26;;;;;;;15.90;8.10;;;;;;;2.68;55.85;98924.21;103323;1257;97852;-71
2023/03/06 09:56:18;;;;;;;15.10;7.60;;;;;;;2.45;55.61;98924.52;103296;1256;109087;-67
2023/03/06 09:58:52;;;;;;;15.60;8.90;;;;;;;2.44;56.58;98922.14;102993;1260;137398;-67
2023/03/06 10:01:24;;;;;;;19.70;9.80;;;;;;;2.49;56.82;98922.39;103304;1255;111667;-67
2023/03/06 10:03:56;;;;;;;19.80;10.10;;;;;;;2.41;57.22;98925.64;102409;1257;1002889;-66
2023/03/06 10:06:28;;;;;;;22.60;11.00;;;;;;;2.22;57.83;98924.30;102585;1256;1002841;-67
2023/03/06 10:09:01;;;;;;;17.90;10.80;;;;;;;2.08;58.45;98919.42;103196;1254;137955;-66
2023/03/06 10:11:37;;;;;;;18.80;9.70;;;;;;;2.03;58.90;98922.95;103307;1256;98153;-67
2023/03/06 10:14:19;;;;;;;16.60;9.60;;;;;;;2.09;58.83;98917.36;103478;1256;111223;-68
2023/03/06 10:16:47;;;;;;;19.10;10.10;;;;;;;2.18;58.95;98912.38;101635;1259;1004155;-67
2023/03/06 10:19:38;;;;;;;24.30;10.70;;;;;;;2.33;58.93;98905.91;103168;1259;97742;-66
2023/03/06 10:22:23;;;;;;;14.50;9.30;;;;;;;2.42;58.87;98905.21;103147;1256;138717;-66
2023/03/06 10:24:57;;;;;;;23.80;11.40;;;;;;;2.42;58.60;98907.77;101782;1255;1002943;-66
2023/03/06 10:27:38;;;;;;;19.90;10.80;;;;;;;2.41;58.64;98906.26;102375;1258;1002979;-66
2023/03/06 10:30:21;;;;;;;16.60;11.10;;;;;;;2.31;58.90;98904.07;103258;1256;109767;-67
2023/03/06 10:32:57;;;;;;;19.40;9.40;;;;;;;2.19;59.21;98906.88;103284;1258;137988;-66
2023/03/06 10:35:32;;;;;;;20.60;11.40;;;;;;;2.07;59.25;98903.85;104301;1256;106672;-67
2023/03/06 10:38:15;;;;;;;18.90;11.80;;;;;;;2.00;59.81;98910.86;103353;1258;97809;-67
2023/03/06 10:40:50;;;;;;;20.70;11.50;;;;;;;1.84;60.35;98910.64;102323;1254;1002972;-67
2023/03/06 10:43:18;;;;;;;20.50;11.40;;;;;;;1.67;61.31;98912.98;103309;1254;107519;-68
2023/03/06 10:45:50;;;;;;;21.30;12.20;;;;;;;1.46;61.91;98906.85;103960;1255;138192;-69
2023/03/06 10:48:27;;;;;;;18.80;10.00;;;;;;;1.36;63.06;98909.40;102522;1256;1003412;-68
2023/03/06 10:51:15;;;;;;;13.10;8.10;;;;;;;1.21;63.06;98907.41;103145;1255;138772;-68
2023/03/06 10:53:56;;;;;;;14.90;8.00;;;;;;;1.03;62.89;98903.77;102960;1254;1003675;-68
2023/03/06 10:56:32;;;;;;;15.80;8.50;;;;;;;0.90;63.50;98895.40;103272;1254;108350;-68
2023/03/06 10:59:14;;;;;;;18.60;9.40;;;;;;;0.86;63.94;98896.13;103458;1254;97731;-69
2023/03/06 11:01:45;;;;;;;19.70;11.10;;;;;;;0.87;64.50;98896.27;103131;1256;108353;-68
2023/03/06 11:04:25;;;;;;;21.30;12.60;;;;;;;0.91;65.52;98891.64;103141;1258;138039;-68
2023/03/06 11:07:13;;;;;;;19.80;10.50;;;;;;;0.86;66.04;98884.84;103305;1255;110372;-68
2023/03/06 11:09:41;;;;;;;19.10;11.50;;;;;;;0.76;65.91;98879.20;103295;1256;138428;-68
2023/03/06 11:12:28;;;;;;;25.40;12.40;;;;;;;0.74;66.50;98876.14;103230;1255;98315;-67
2023/03/06 11:15:19;;;;;;;17.80;10.30;;;;;;;0.67;66.67;98873.84;103868;1257;138334;-67
2023/03/06 11:17:59;;;;;;;16.60;9.00;;;;;;;0.59;66.93;98866.77;103232;1256;97845;-68
2023/03/06 11:20:31;;;;;;;14.70;9.10;;;;;;;0.57;67.07;98859.96;103117;1256;112083;-68
2023/03/06 11:23:35;;;;;;;20.30;10.20;;;;;;;0.56;66.88;98861.35;103185;1256;108769;-68
2023/03/06 11:26:20;;;;;;;18.20;8.80;;;;;;;0.53;67.05;98859.66;103284;1256;97670;-68
2023/03/06 11:29:22;;;;;;;18.40;11.10;;;;;;;0.47;67.52;98849.33;102338;1256;1003338;-69
2023/03/06 11:31:54;;;;;;;18.60;10.30;;;;;;;0.45;68.04;98846.44;101741;1258;1015568;-69
2023/03/06 11:34:38;;;;;;;18.50;11.80;;;;;;;0.40;68.39;98847.21;103145;1256;138542;-69
2023/03/06 11:37:47;;;;;;;20.40;12.00;;;;;;;0.38;68.80;98838.00;103172;1256;107981;-66
2023/03/06 11:40:42;;;;;;;20.50;12.70;;;;;;;0.34;69.86;98834.95;103269;1256;138335;-67